createdAt,value
2023-02-07T00:00:52.817Z,32.90
2023-02-07T00:03:19.556Z,31.00
2023-02-07T00:05:46.278Z,39.53
2023-02-07T00:08:15.062Z,39.25
2023-02-07T00:10:41.738Z,36.47
2023-02-07T00:13:08.419Z,29.73
2023-02-07T00:15:35.296Z,35.88
2023-02-07T00:18:02.162Z,32.15
2023-02-07T00:20:28.797Z,33.40
2023-02-07T00:22:55.566Z,38.50
2023-02-07T00:25:22.623Z,31.10
2023-02-07T00:27:49.507Z,38.20
2023-02-07T00:30:16.447Z,31.83
2023-02-07T00:32:43.163Z,29.50
2023-02-07T00:35:09.976Z,30.50
2023-02-07T00:37:36.722Z,30.23
2023-02-07T00:40:05.144Z,27.05
2023-02-07T00:42:32.808Z,34.45
2023-02-07T00:44:59.466Z,27.75
2023-02-07T00:47:26.267Z,33.85
2023-02-07T00:49:52.950Z,31.67
2023-02-07T00:52:19.645Z,31.05
2023-02-07T00:54:46.331Z,31.27
2023-02-07T00:57:13.009Z,40.28
2023-02-07T00:59:40.031Z,28.52
2023-02-07T01:02:06.743Z,33.17
2023-02-07T01:04:34.616Z,29.55
2023-02-07T01:07:01.388Z,27.75
2023-02-07T01:09:29.101Z,27.05
2023-02-07T01:11:56.033Z,28.15
2023-02-07T01:14:24.937Z,35.28
2023-02-07T01:16:51.949Z,26.17
2023-02-07T01:19:18.990Z,34.85
2023-02-07T01:21:45.644Z,30.15
2023-02-07T01:24:12.318Z,32.60
2023-02-07T01:26:39.617Z,35.60
2023-02-07T01:29:07.787Z,23.83
2023-02-07T01:31:35.386Z,47.53
2023-02-07T01:34:05.279Z,27.75
2023-02-07T01:36:32.486Z,26.15
2023-02-07T01:38:59.338Z,27.40
2023-02-07T01:41:27.699Z,28.73
2023-02-07T01:44:00.667Z,33.50
2023-02-07T01:46:28.782Z,27.35
2023-02-07T01:48:58.852Z,28.83
2023-02-07T01:51:26.466Z,32.45
2023-02-07T01:53:56.708Z,34.17
2023-02-07T01:56:31.570Z,34.47
2023-02-07T01:59:03.933Z,25.10
2023-02-07T02:01:30.702Z,25.90
2023-02-07T02:03:57.561Z,26.38
2023-02-07T02:06:27.116Z,30.75
2023-02-07T02:08:57.287Z,28.15
2023-02-07T02:11:55.775Z,28.83
2023-02-07T02:14:40.938Z,29.83
2023-02-07T02:17:13.582Z,26.17
2023-02-07T02:20:02.640Z,38.85
2023-02-07T02:23:10.727Z,29.30
2023-02-07T02:25:46.442Z,25.33
2023-02-07T02:28:59.215Z,32.30
2023-02-07T02:34:17.795Z,24.70
2023-02-07T02:37:07.853Z,28.60
2023-02-07T02:40:04.747Z,27.88
2023-02-07T02:42:38.778Z,33.25
2023-02-07T02:45:13.405Z,32.83
2023-02-07T02:47:44.541Z,26.58
2023-02-07T02:50:14.153Z,28.60
2023-02-07T02:52:50.686Z,28.63
2023-02-07T02:55:46.534Z,30.45
2023-02-07T02:58:25.821Z,28.85
2023-02-07T03:01:38.937Z,31.20
2023-02-07T03:04:39.531Z,30.88
2023-02-07T03:07:43.557Z,30.27
2023-02-07T03:10:18.996Z,30.63
2023-02-07T03:12:55.317Z,27.60
2023-02-07T03:15:48.499Z,27.58
2023-02-07T03:18:21.225Z,26.23
2023-02-07T03:21:01.468Z,34.65
2023-02-07T03:23:30.580Z,29.38
2023-02-07T03:25:58.989Z,32.92
2023-02-07T03:28:27.991Z,34.65
2023-02-07T03:30:56.773Z,26.65
2023-02-07T03:33:24.829Z,29.80
2023-02-07T03:36:02.889Z,26.88
2023-02-07T03:38:29.935Z,31.40
2023-02-07T03:41:01.301Z,31.75
2023-02-07T03:43:30.506Z,30.02
2023-02-07T03:45:57.385Z,29.52
2023-02-07T03:48:24.692Z,31.33
2023-02-07T03:50:52.826Z,35.78
2023-02-07T03:53:20.474Z,38.03
2023-02-07T03:55:47.154Z,30.25
2023-02-07T03:58:13.961Z,28.10
2023-02-07T04:00:40.660Z,36.47
2023-02-07T04:03:07.324Z,28.17
2023-02-07T04:05:34.055Z,24.98
2023-02-07T04:08:01.060Z,30.77
2023-02-07T04:10:27.744Z,23.42
2023-02-07T04:12:54.379Z,28.40
2023-02-07T04:15:21.394Z,30.65
2023-02-07T04:17:48.066Z,29.98
2023-02-07T04:20:15.211Z,22.35
2023-02-07T04:22:41.847Z,27.83
2023-02-07T04:25:08.675Z,24.85
2023-02-07T04:27:35.342Z,24.48
2023-02-07T04:30:02.041Z,31.88
2023-02-07T04:32:28.683Z,24.50
2023-02-07T04:34:55.538Z,22.25
2023-02-07T04:37:22.178Z,28.45
2023-02-07T04:39:48.898Z,28.00
2023-02-07T04:42:15.525Z,21.80
2023-02-07T04:44:42.255Z,35.15
2023-02-07T04:47:08.897Z,30.73
2023-02-07T04:49:35.744Z,28.10
2023-02-07T04:52:02.493Z,23.75
2023-02-07T04:54:29.148Z,23.27
2023-02-07T04:56:55.914Z,27.95
2023-02-07T04:59:22.567Z,42.47
2023-02-07T05:01:49.272Z,36.58
2023-02-07T05:04:15.958Z,28.25
2023-02-07T05:06:42.682Z,27.23
2023-02-07T05:09:09.292Z,21.40
2023-02-07T05:11:36.032Z,23.35
2023-02-07T05:14:02.902Z,29.00
2023-02-07T05:16:29.565Z,24.23
2023-02-07T05:18:56.294Z,17.60
2023-02-07T05:21:22.965Z,21.95
2023-02-07T05:23:50.275Z,26.38
2023-02-07T05:26:17.375Z,26.02
2023-02-07T05:28:44.426Z,25.50
2023-02-07T05:31:11.296Z,24.15
2023-02-07T05:33:38.042Z,24.15
2023-02-07T05:36:05.131Z,18.90
2023-02-07T05:38:31.903Z,22.00
2023-02-07T05:40:58.842Z,24.35
2023-02-07T05:43:25.484Z,21.05
2023-02-07T05:45:52.198Z,23.52
2023-02-07T05:48:18.984Z,22.90
2023-02-07T05:50:45.612Z,23.08
2023-02-07T05:53:12.951Z,23.65
2023-02-07T05:55:41.015Z,26.73
2023-02-07T05:58:07.843Z,25.33
2023-02-07T06:00:34.493Z,17.15
2023-02-07T06:03:01.141Z,21.13
2023-02-07T06:05:31.613Z,29.77
2023-02-07T06:07:58.628Z,29.30
2023-02-07T06:10:25.386Z,30.05
2023-02-07T06:12:52.155Z,22.42
2023-02-07T06:15:19.006Z,25.80
2023-02-07T06:17:45.722Z,22.35
2023-02-07T06:20:12.410Z,23.05
2023-02-07T06:22:39.061Z,28.85
2023-02-07T06:25:06.983Z,27.02
2023-02-07T06:27:33.651Z,22.40
2023-02-07T06:30:00.348Z,25.73
2023-02-07T06:32:27.011Z,24.02
2023-02-07T06:34:53.650Z,34.33
2023-02-07T06:37:20.426Z,24.88
2023-02-07T06:39:47.053Z,28.58
2023-02-07T06:42:13.694Z,26.13
2023-02-07T06:44:40.323Z,20.15
2023-02-07T06:47:06.970Z,26.33
2023-02-07T06:49:33.761Z,25.02
2023-02-07T06:52:00.414Z,22.95
2023-02-07T06:54:27.032Z,26.05
2023-02-07T06:56:53.695Z,32.40
2023-02-07T06:59:20.362Z,30.23
2023-02-07T07:01:49.399Z,29.30
2023-02-07T07:04:16.373Z,32.92
2023-02-07T07:06:43.057Z,28.55
2023-02-07T07:09:09.745Z,27.35
2023-02-07T07:11:42.815Z,26.85
2023-02-07T07:14:10.802Z,28.65
2023-02-07T07:16:37.749Z,36.90
2023-02-07T07:19:04.765Z,40.65
2023-02-07T07:21:31.487Z,30.80
2023-02-07T07:23:58.298Z,115.57
2023-02-07T07:26:25.002Z,106.38
2023-02-07T07:28:51.892Z,76.20
2023-02-07T07:31:18.599Z,61.13
2023-02-07T07:33:45.296Z,66.80
2023-02-07T07:36:11.964Z,39.10
2023-02-07T07:38:38.841Z,55.78
2023-02-07T07:41:05.882Z,47.60
2023-02-07T07:43:32.614Z,27.95
2023-02-07T07:46:00.112Z,26.27
2023-02-07T07:48:27.751Z,31.30
2023-02-07T07:50:54.798Z,21.58
2023-02-07T07:53:21.949Z,28.50
2023-02-07T07:55:53.649Z,25.08
2023-02-07T07:58:21.485Z,28.15
2023-02-07T08:00:48.636Z,33.88
2023-02-07T08:03:16.341Z,30.70
2023-02-07T08:05:44.425Z,28.60
2023-02-07T08:08:11.726Z,30.08
2023-02-07T08:10:39.275Z,29.30
2023-02-07T08:13:06.338Z,28.42
2023-02-07T08:15:33.124Z,31.05
2023-02-07T08:17:59.797Z,28.20
2023-02-07T08:20:26.599Z,30.92
2023-02-07T08:22:53.431Z,32.60
2023-02-07T08:25:20.224Z,28.75
2023-02-07T08:27:47.149Z,35.78
2023-02-07T08:30:16.104Z,35.85
2023-02-07T08:32:43.002Z,30.98
2023-02-07T08:35:09.927Z,34.47
2023-02-07T08:37:37.947Z,31.17
2023-02-07T08:40:05.994Z,36.85
2023-02-07T08:42:33.048Z,36.30
2023-02-07T08:44:59.731Z,37.60
2023-02-07T08:47:26.657Z,41.95
2023-02-07T08:49:53.453Z,32.75
2023-02-07T08:52:20.275Z,30.33
2023-02-07T08:54:47.021Z,34.63
2023-02-07T08:57:13.666Z,33.45
2023-02-07T08:59:40.404Z,26.98
2023-02-07T09:02:07.395Z,27.30
2023-02-07T09:04:36.307Z,36.78
2023-02-07T09:07:03.008Z,26.17
2023-02-07T09:09:32.188Z,24.05
2023-02-07T09:11:58.842Z,28.58
2023-02-07T09:14:25.682Z,30.80
2023-02-07T09:16:52.486Z,27.10
2023-02-07T09:19:19.391Z,25.58
2023-02-07T09:21:46.073Z,25.40
2023-02-07T09:24:12.785Z,22.50
2023-02-07T09:26:39.685Z,24.10
2023-02-07T09:29:07.668Z,21.52
2023-02-07T09:31:35.194Z,19.42
2023-02-07T09:34:02.905Z,18.15
2023-02-07T09:36:30.916Z,18.38
2023-02-07T09:38:59.265Z,20.13
2023-02-07T09:42:10.474Z,17.95
2023-02-07T09:44:55.893Z,15.45
2023-02-07T09:47:24.656Z,22.35
2023-02-07T09:49:56.609Z,18.08
2023-02-07T09:52:30.928Z,14.85
2023-02-07T09:55:00.819Z,19.58
2023-02-07T09:57:37.470Z,17.98
2023-02-07T10:00:16.044Z,18.08
2023-02-07T10:02:52.087Z,17.15
2023-02-07T10:05:23.045Z,20.42
2023-02-07T10:07:50.489Z,19.85
2023-02-07T10:10:32.789Z,15.02
2023-02-07T10:15:56.828Z,14.68
2023-02-07T10:18:44.296Z,16.00
2023-02-07T10:21:40.300Z,14.25
2023-02-07T10:24:23.606Z,15.45
2023-02-07T10:26:57.316Z,17.85
2023-02-07T10:29:46.612Z,19.13
2023-02-07T10:32:19.236Z,17.52
2023-02-07T10:34:51.503Z,15.63
2023-02-07T10:37:27.002Z,15.13
2023-02-07T10:40:30.573Z,15.27
2023-02-07T10:43:05.751Z,16.45
2023-02-07T10:45:33.006Z,19.98
2023-02-07T10:47:59.729Z,17.42
2023-02-07T10:50:30.898Z,18.23
2023-02-07T10:52:58.850Z,14.60
2023-02-07T10:55:40.146Z,16.73
2023-02-07T10:58:21.124Z,17.90
2023-02-07T11:00:52.074Z,19.90
2023-02-07T11:03:21.613Z,16.73
2023-02-07T11:06:07.906Z,20.85
2023-02-07T11:08:35.707Z,19.75
2023-02-07T11:11:32.908Z,18.15
2023-02-07T11:14:04.996Z,18.17
2023-02-07T11:16:32.055Z,16.20
2023-02-07T11:19:07.276Z,14.40
2023-02-07T11:21:33.897Z,15.35
2023-02-07T11:24:17.349Z,14.85
2023-02-07T11:27:12.524Z,16.77
2023-02-07T11:29:56.112Z,16.35
2023-02-07T11:32:24.674Z,16.67
2023-02-07T11:35:05.827Z,16.50
2023-02-07T11:37:37.577Z,15.60
2023-02-07T11:40:22.220Z,14.95
2023-02-07T11:43:07.019Z,14.63
2023-02-07T11:45:34.708Z,16.95
2023-02-07T11:48:03.207Z,20.05
2023-02-07T11:50:36.847Z,13.77
2023-02-07T11:53:03.765Z,15.88
2023-02-07T11:55:39.794Z,13.38
2023-02-07T11:58:31.040Z,14.30
2023-02-07T12:01:00.817Z,13.90
2023-02-07T12:03:31.682Z,13.70
2023-02-07T12:06:02.520Z,16.20
2023-02-07T12:08:33.550Z,12.70
2023-02-07T12:11:10.373Z,17.08
2023-02-07T12:13:41.870Z,13.48
2023-02-07T12:16:35.519Z,14.82
2023-02-07T12:19:10.362Z,14.73
2023-02-07T12:21:53.538Z,14.15
2023-02-07T12:24:36.209Z,17.48
2023-02-07T12:27:08.926Z,11.48
2023-02-07T12:29:54.617Z,13.82
2023-02-07T12:32:48.972Z,13.35
2023-02-07T12:35:34.856Z,14.57
2023-02-07T12:38:24.213Z,13.15
2023-02-07T12:41:07.766Z,13.07
2023-02-07T12:43:38.553Z,11.40
2023-02-07T12:46:16.360Z,17.50
2023-02-07T12:49:05.911Z,18.35
2023-02-07T12:51:58.877Z,15.35
2023-02-07T12:54:44.343Z,15.18
2023-02-07T12:57:39.464Z,13.45
2023-02-07T13:00:25.381Z,12.55
2023-02-07T13:03:20.196Z,11.90
2023-02-07T13:06:04.769Z,11.05
2023-02-07T13:08:55.269Z,11.88
2023-02-07T13:11:49.562Z,19.17
2023-02-07T13:14:40.960Z,11.50
2023-02-07T13:17:38.075Z,11.50
2023-02-07T13:20:28.774Z,14.75
2023-02-07T13:23:01.985Z,11.13
2023-02-07T13:25:38.648Z,12.25
2023-02-07T13:28:14.178Z,10.68
2023-02-07T13:30:41.496Z,10.82
2023-02-07T13:33:26.665Z,9.15
2023-02-07T13:35:55.729Z,12.88
2023-02-07T13:38:44.029Z,11.50
2023-02-07T13:41:39.805Z,9.25
2023-02-07T13:44:11.586Z,10.48
2023-02-07T13:47:19.604Z,9.73
2023-02-07T13:49:58.483Z,9.02
2023-02-07T13:52:43.060Z,11.30
2023-02-07T13:55:40.515Z,9.68
2023-02-07T13:58:54.442Z,10.02
2023-02-07T14:01:34.755Z,10.48
2023-02-07T14:04:09.552Z,10.70
2023-02-07T14:07:11.761Z,8.98
2023-02-07T14:09:46.918Z,11.68
2023-02-07T14:12:24.640Z,9.45
2023-02-07T14:15:02.111Z,9.68
2023-02-07T14:17:29.470Z,9.85
2023-02-07T14:20:01.037Z,9.57
2023-02-07T14:22:40.763Z,8.48
2023-02-07T14:25:07.484Z,9.20
2023-02-07T14:27:37.207Z,10.32
2023-02-07T14:30:13.107Z,6.45
2023-02-07T14:33:12.532Z,7.63
2023-02-07T14:36:07.282Z,7.10
2023-02-07T14:38:38.629Z,7.72
2023-02-07T14:41:11.677Z,8.57
2023-02-07T14:44:07.147Z,9.93
2023-02-07T14:46:42.168Z,9.45
2023-02-07T14:49:36.398Z,8.70
2023-02-07T14:52:13.662Z,11.93
2023-02-07T14:54:40.676Z,10.75
2023-02-07T14:57:30.515Z,10.98
2023-02-07T15:00:06.306Z,11.38
2023-02-07T15:02:40.089Z,14.93
2023-02-07T15:05:17.391Z,9.02
2023-02-07T15:07:46.898Z,16.30
2023-02-07T15:10:28.233Z,14.38
2023-02-07T15:12:56.777Z,12.30
2023-02-07T15:15:35.689Z,15.90
2023-02-07T15:18:02.624Z,13.85
2023-02-07T15:20:32.236Z,9.77
2023-02-07T15:23:01.926Z,11.52
2023-02-07T15:25:30.806Z,10.70
2023-02-07T15:28:13.021Z,11.25
2023-02-07T15:31:15.642Z,13.75
2023-02-07T15:33:49.815Z,13.20
2023-02-07T15:36:31.366Z,11.15
2023-02-07T15:39:00.621Z,12.50
2023-02-07T15:41:28.269Z,10.75
2023-02-07T15:44:18.210Z,14.10
2023-02-07T15:46:47.476Z,12.10
2023-02-07T15:49:32.635Z,12.23
2023-02-07T15:52:17.469Z,12.07
2023-02-07T15:54:51.411Z,12.65
2023-02-07T15:57:26.880Z,11.87
2023-02-07T15:59:57.924Z,12.43
2023-02-07T16:02:31.509Z,14.23
2023-02-07T16:04:59.634Z,14.18
2023-02-07T16:07:27.858Z,17.75
2023-02-07T16:09:54.551Z,16.73
2023-02-07T16:12:45.454Z,19.02
2023-02-07T16:15:24.410Z,14.48
2023-02-07T16:17:51.651Z,16.15
2023-02-07T16:20:18.544Z,10.55
2023-02-07T16:22:46.707Z,14.57
2023-02-07T16:25:16.906Z,14.20
2023-02-07T16:27:45.853Z,13.70
2023-02-07T16:30:32.978Z,14.55
2023-02-07T16:33:04.772Z,13.85
2023-02-07T16:35:31.618Z,14.57
2023-02-07T16:37:58.365Z,14.63
2023-02-07T16:40:26.900Z,14.38
2023-02-07T16:42:55.281Z,14.63
2023-02-07T16:45:28.974Z,19.42
2023-02-07T16:47:58.087Z,14.85
2023-02-07T16:50:27.270Z,21.67
2023-02-07T16:52:59.426Z,13.60
2023-02-07T16:57:56.487Z,13.73
2023-02-07T17:00:25.564Z,14.85
2023-02-07T17:02:53.697Z,18.27
2023-02-07T17:05:22.341Z,17.73
2023-02-07T17:07:49.939Z,16.80
2023-02-07T17:10:24.976Z,14.40
2023-02-07T17:12:51.899Z,19.67
2023-02-07T17:15:18.697Z,19.85
2023-02-07T17:17:45.409Z,23.75
2023-02-07T17:20:21.707Z,20.77
2023-02-07T17:22:48.826Z,23.75
2023-02-07T17:25:16.678Z,17.80
2023-02-07T17:27:43.382Z,19.63
2023-02-07T17:30:23.642Z,18.65
2023-02-07T17:32:50.444Z,17.98
2023-02-07T17:35:17.395Z,19.42
2023-02-07T17:37:44.162Z,20.90
2023-02-07T17:40:28.481Z,27.88
2023-02-07T17:42:55.508Z,38.75
2023-02-07T17:45:22.511Z,39.92
2023-02-07T17:47:49.656Z,41.38
2023-02-07T17:50:22.832Z,41.58
2023-02-07T17:52:49.491Z,33.20
2023-02-07T17:55:17.092Z,33.35
2023-02-07T17:57:44.274Z,31.63
2023-02-07T18:00:34.554Z,29.33
2023-02-07T18:03:01.574Z,29.00
2023-02-07T18:05:30.165Z,27.95
2023-02-07T18:07:57.314Z,29.13
2023-02-07T18:10:42.491Z,33.53
2023-02-07T18:13:09.415Z,29.73
2023-02-07T18:15:36.502Z,25.80
2023-02-07T18:18:03.337Z,31.25
2023-02-07T18:20:32.670Z,24.60
2023-02-07T18:23:01.074Z,29.70
2023-02-07T18:25:30.491Z,29.90
2023-02-07T18:27:58.238Z,41.22
2023-02-07T18:30:26.453Z,30.05
2023-02-07T18:32:53.248Z,26.40
2023-02-07T18:35:21.114Z,23.58
2023-02-07T18:37:48.106Z,26.83
2023-02-07T18:40:15.730Z,29.05
2023-02-07T18:42:42.676Z,28.85
2023-02-07T18:45:10.039Z,31.20
2023-02-07T18:47:36.835Z,29.98
2023-02-07T18:50:03.713Z,26.98
2023-02-07T18:52:30.399Z,29.10
2023-02-07T18:54:57.018Z,26.25
2023-02-07T18:57:23.661Z,26.27
2023-02-07T18:59:50.339Z,32.25
2023-02-07T19:02:17.166Z,34.90
2023-02-07T19:04:44.142Z,30.73
2023-02-07T19:07:10.844Z,39.58
2023-02-07T19:09:37.605Z,35.25
2023-02-07T19:12:04.476Z,32.47
2023-02-07T19:14:32.158Z,32.08
2023-02-07T19:16:59.525Z,28.70
2023-02-07T19:19:30.549Z,28.83
2023-02-07T19:21:57.671Z,30.65
2023-02-07T19:24:26.060Z,29.15
2023-02-07T19:26:55.973Z,33.97
2023-02-07T19:29:28.713Z,27.73
2023-02-07T19:32:00.845Z,30.05
2023-02-07T19:36:54.624Z,27.30
2023-02-07T19:39:21.634Z,29.83
2023-02-07T19:41:49.078Z,32.95
2023-02-07T19:44:17.113Z,32.60
2023-02-07T19:46:44.283Z,31.48
2023-02-07T19:49:12.623Z,38.72
2023-02-07T19:51:39.700Z,33.50
2023-02-07T19:54:06.619Z,35.72
2023-02-07T19:56:33.998Z,37.70
2023-02-07T19:59:03.565Z,39.50
2023-02-07T20:01:32.993Z,41.20
2023-02-07T20:04:00.724Z,30.35
2023-02-07T20:06:31.358Z,29.23
2023-02-07T20:08:59.839Z,27.52
2023-02-07T20:11:27.095Z,29.98
2023-02-07T20:13:55.883Z,29.35
2023-02-07T20:16:25.002Z,26.60
2023-02-07T20:18:52.958Z,26.92
2023-02-07T20:21:25.339Z,37.50
2023-02-07T20:23:54.676Z,27.20
2023-02-07T20:26:38.289Z,32.88
2023-02-07T20:29:09.441Z,27.95
2023-02-07T20:31:37.580Z,25.80
2023-02-07T20:34:05.096Z,45.53
2023-02-07T20:36:33.657Z,30.77
2023-02-07T20:39:00.766Z,26.75
2023-02-07T20:41:29.795Z,28.63
2023-02-07T20:44:04.930Z,28.38
2023-02-07T20:46:34.753Z,26.65
2023-02-07T20:49:07.798Z,29.75
2023-02-07T20:51:34.904Z,32.97
2023-02-07T20:54:03.395Z,28.83
2023-02-07T20:56:32.661Z,27.52
2023-02-07T20:58:59.594Z,28.73
2023-02-07T21:01:28.150Z,27.02
2023-02-07T21:03:57.781Z,27.88
2023-02-07T21:06:25.431Z,24.20
2023-02-07T21:08:59.477Z,30.90
2023-02-07T21:11:33.820Z,32.25
2023-02-07T21:14:01.780Z,32.75
2023-02-07T21:16:30.738Z,32.67
2023-02-07T21:18:57.939Z,31.05
2023-02-07T21:21:24.678Z,31.52
2023-02-07T21:23:51.570Z,23.05
2023-02-07T21:26:19.012Z,26.48
2023-02-07T21:28:46.259Z,30.65
2023-02-07T21:31:16.846Z,25.30
2023-02-07T21:33:44.299Z,24.88
2023-02-07T21:36:13.925Z,24.75
2023-02-07T21:38:43.125Z,24.23
2023-02-07T21:41:11.451Z,25.77
2023-02-07T21:43:40.197Z,23.15
2023-02-07T21:46:12.382Z,26.98
2023-02-07T21:48:40.058Z,27.95
2023-02-07T21:51:10.345Z,23.35
2023-02-07T21:53:37.791Z,24.40
2023-02-07T21:56:07.689Z,24.98
2023-02-07T21:58:35.008Z,26.23
2023-02-07T22:01:07.545Z,22.88
2023-02-07T22:03:35.508Z,26.98
2023-02-07T22:06:02.513Z,24.65
2023-02-07T22:08:29.229Z,29.13
2023-02-07T22:10:56.316Z,21.02
2023-02-07T22:13:23.229Z,23.67
2023-02-07T22:15:50.842Z,23.50
2023-02-07T22:18:17.681Z,28.33
2023-02-07T22:20:44.394Z,29.55
2023-02-07T22:23:11.067Z,24.23
2023-02-07T22:25:41.467Z,25.58
2023-02-07T22:28:09.939Z,26.83
2023-02-07T22:30:40.285Z,26.42
2023-02-07T22:33:09.570Z,31.48
2023-02-07T22:35:42.141Z,35.08
2023-02-07T22:38:10.666Z,30.75
2023-02-07T22:40:39.108Z,26.52
2023-02-07T22:43:14.454Z,27.17
2023-02-07T22:45:45.817Z,27.73
2023-02-07T22:48:14.489Z,23.05
2023-02-07T22:50:42.564Z,23.42
2023-02-07T22:53:11.514Z,26.92
2023-02-07T22:55:39.939Z,19.45
2023-02-07T22:58:07.201Z,19.60
2023-02-07T23:00:33.964Z,27.90
2023-02-07T23:03:01.375Z,21.23
2023-02-07T23:05:28.613Z,23.23
2023-02-07T23:07:55.395Z,23.48
2023-02-07T23:10:22.148Z,18.80
2023-02-07T23:12:48.826Z,23.27
2023-02-07T23:15:15.503Z,24.20
2023-02-07T23:17:42.185Z,22.58
2023-02-07T23:20:09.346Z,22.33
2023-02-07T23:22:37.500Z,24.23
2023-02-07T23:25:05.515Z,28.75
2023-02-07T23:27:32.575Z,30.40
2023-02-07T23:29:59.316Z,24.23
2023-02-07T23:32:25.991Z,21.27
2023-02-07T23:34:52.616Z,25.75
2023-02-07T23:37:22.303Z,24.00
2023-02-07T23:39:49.257Z,22.70
2023-02-07T23:42:15.947Z,22.30
2023-02-07T23:44:42.622Z,24.50
2023-02-07T23:47:09.690Z,23.67
2023-02-07T23:49:36.627Z,26.15
2023-02-07T23:52:03.299Z,24.65
2023-02-07T23:54:29.956Z,21.42
2023-02-07T23:56:56.631Z,28.55
2023-02-07T23:59:23.354Z,22.55
